createdAt,value
2018-12-27T00:01:45.287Z,6.80
2018-12-27T00:04:14.986Z,6.80
2018-12-27T00:06:43.707Z,6.70
2018-12-27T00:09:12.372Z,6.70
2018-12-27T00:11:41.059Z,6.70
2018-12-27T00:14:10.039Z,6.60
2018-12-27T00:16:38.754Z,6.60
2018-12-27T00:19:07.555Z,6.60
2018-12-27T00:21:36.600Z,6.60
2018-12-27T00:24:06.503Z,6.60
2018-12-27T00:26:35.127Z,6.60
2018-12-27T00:29:03.819Z,6.60
2018-12-27T00:31:32.948Z,6.50
2018-12-27T00:34:01.844Z,6.50
2018-12-27T00:36:31.342Z,6.50
2018-12-27T00:39:00.165Z,6.60
2018-12-27T00:41:29.054Z,6.60
2018-12-27T00:43:57.927Z,6.60
2018-12-27T00:46:27.218Z,6.50
2018-12-27T00:48:56.418Z,6.60
2018-12-27T00:51:25.341Z,6.50
2018-12-27T00:53:54.212Z,6.50
2018-12-27T00:56:23.103Z,6.50
2018-12-27T00:58:52.001Z,6.50
2018-12-27T01:01:20.883Z,6.50
2018-12-27T01:03:49.785Z,6.60
2018-12-27T01:06:18.969Z,6.60
2018-12-27T01:08:48.487Z,6.50
2018-12-27T01:11:17.391Z,6.50
2018-12-27T01:13:46.564Z,6.50
2018-12-27T01:16:15.765Z,6.50
2018-12-27T01:18:45.349Z,6.50
2018-12-27T01:21:14.467Z,6.50
2018-12-27T01:23:43.672Z,6.50
2018-12-27T01:26:12.600Z,6.50
2018-12-27T01:28:41.454Z,6.50
2018-12-27T01:31:10.350Z,6.50
2018-12-27T01:33:40.246Z,6.50
2018-12-27T01:36:09.331Z,6.40
2018-12-27T01:38:38.151Z,6.40
2018-12-27T01:41:07.319Z,6.40
2018-12-27T01:43:36.434Z,6.40
2018-12-27T01:46:05.239Z,6.50
2018-12-27T01:48:34.118Z,6.50
2018-12-27T01:51:03.003Z,6.50
2018-12-27T01:53:32.004Z,6.50
2018-12-27T01:56:00.887Z,6.50
2018-12-27T01:58:29.680Z,6.50
2018-12-27T02:00:58.576Z,6.50
2018-12-27T02:03:27.696Z,6.50
2018-12-27T02:05:57.260Z,6.50
2018-12-27T02:08:26.076Z,6.50
2018-12-27T02:10:55.569Z,6.50
2018-12-27T02:13:24.369Z,6.40
2018-12-27T02:15:53.254Z,6.50
2018-12-27T02:18:22.862Z,6.50
2018-12-27T02:20:52.057Z,6.50
2018-12-27T02:23:20.979Z,6.40
2018-12-27T02:25:49.842Z,6.40
2018-12-27T02:28:19.047Z,6.40
2018-12-27T02:30:47.942Z,6.40
2018-12-27T02:33:17.546Z,6.50
2018-12-27T02:35:46.425Z,6.40
2018-12-27T02:38:15.827Z,6.40
2018-12-27T02:40:44.926Z,6.40
2018-12-27T02:43:14.322Z,6.40
2018-12-27T02:45:43.416Z,6.50
2018-12-27T02:48:12.231Z,6.50
2018-12-27T02:50:41.403Z,6.50
2018-12-27T02:53:10.500Z,6.50
2018-12-27T02:55:39.920Z,6.50
2018-12-27T02:58:09.319Z,6.50
2018-12-27T03:00:38.406Z,6.50
2018-12-27T03:03:07.504Z,6.50
2018-12-27T03:05:36.316Z,6.50
2018-12-27T03:08:05.191Z,6.50
2018-12-27T03:10:34.387Z,6.40
2018-12-27T03:13:03.200Z,6.40
2018-12-27T03:15:32.078Z,6.40
2018-12-27T03:18:01.361Z,6.40
2018-12-27T03:20:30.454Z,6.40
2018-12-27T03:22:59.542Z,6.40
2018-12-27T03:25:28.407Z,6.40
2018-12-27T03:27:57.633Z,6.30
2018-12-27T03:30:26.475Z,6.30
2018-12-27T03:32:55.394Z,6.30
2018-12-27T03:35:24.765Z,6.30
2018-12-27T03:37:53.927Z,6.30
2018-12-27T03:40:22.731Z,6.30
2018-12-27T03:42:51.723Z,6.30
2018-12-27T03:45:21.132Z,6.30
2018-12-27T03:47:50.084Z,6.20
2018-12-27T03:50:18.956Z,6.30
2018-12-27T03:52:47.815Z,6.30
2018-12-27T03:55:17.786Z,6.30
2018-12-27T03:57:47.099Z,6.20
2018-12-27T04:00:15.911Z,6.20
2018-12-27T04:02:45.207Z,6.20
2018-12-27T04:05:14.528Z,6.20
2018-12-27T04:07:43.488Z,6.30
2018-12-27T04:10:12.415Z,6.20
2018-12-27T04:12:41.424Z,6.20
2018-12-27T04:15:10.890Z,6.20
2018-12-27T04:17:39.804Z,6.20
2018-12-27T04:20:08.571Z,6.20
2018-12-27T04:22:37.562Z,6.20
2018-12-27T04:25:06.842Z,6.20
2018-12-27T04:27:35.906Z,6.20
2018-12-27T04:30:05.318Z,6.10
2018-12-27T04:32:34.619Z,6.10
2018-12-27T04:35:03.507Z,6.10
2018-12-27T04:37:32.228Z,6.10
2018-12-27T04:40:01.733Z,6.10
2018-12-27T04:42:31.775Z,6.10
2018-12-27T04:45:00.450Z,6.10
2018-12-27T04:47:29.315Z,6.10
2018-12-27T04:49:57.992Z,6.10
2018-12-27T04:52:27.550Z,6.10
2018-12-27T04:54:56.518Z,6.10
2018-12-27T04:57:25.765Z,6.10
2018-12-27T04:59:54.801Z,6.10
2018-12-27T05:02:23.556Z,6.10
2018-12-27T05:04:53.488Z,6.10
2018-12-27T05:07:22.781Z,6.10
2018-12-27T05:09:51.847Z,6.10
2018-12-27T05:12:21.820Z,6.20
2018-12-27T05:14:50.597Z,6.20
2018-12-27T05:17:19.858Z,6.10
2018-12-27T05:19:48.863Z,6.10
2018-12-27T05:22:17.750Z,6.10
2018-12-27T05:24:46.466Z,6.10
2018-12-27T05:27:15.161Z,6.10
2018-12-27T05:29:44.180Z,6.10
2018-12-27T05:32:13.095Z,6.10
2018-12-27T05:34:41.822Z,6.10
2018-12-27T05:37:10.503Z,6.10
2018-12-27T05:39:39.553Z,6.10
2018-12-27T05:42:08.465Z,6.10
2018-12-27T05:44:37.575Z,6.10
2018-12-27T05:47:06.542Z,6.10
2018-12-27T05:49:35.662Z,6.00
2018-12-27T05:52:04.366Z,6.00
2018-12-27T05:54:33.069Z,6.00
2018-12-27T05:57:01.996Z,6.00
2018-12-27T05:59:30.903Z,6.00
2018-12-27T06:01:59.953Z,6.00
2018-12-27T06:04:33.734Z,6.00
2018-12-27T06:06:59.280Z,6.10
2018-12-27T06:09:28.237Z,6.00
2018-12-27T06:11:56.931Z,6.00
2018-12-27T06:14:25.644Z,5.90
2018-12-27T06:16:54.661Z,5.90
2018-12-27T06:19:23.312Z,5.90
2018-12-27T06:21:51.979Z,5.90
2018-12-27T06:24:20.628Z,5.80
2018-12-27T06:26:49.743Z,5.80
2018-12-27T06:29:18.488Z,5.70
2018-12-27T06:31:47.403Z,5.70
2018-12-27T06:34:16.136Z,5.60
2018-12-27T06:36:45.428Z,5.60
2018-12-27T06:39:14.484Z,5.60
2018-12-27T06:41:43.623Z,5.50
2018-12-27T06:44:12.895Z,5.50
2018-12-27T06:46:41.647Z,5.50
2018-12-27T06:49:10.600Z,5.50
2018-12-27T06:51:39.312Z,5.50
2018-12-27T06:54:08.544Z,5.60
2018-12-27T06:56:37.527Z,5.60
2018-12-27T06:59:06.702Z,5.60
2018-12-27T07:01:35.947Z,5.60
2018-12-27T07:04:05.454Z,5.70
2018-12-27T07:06:34.741Z,5.60
2018-12-27T07:09:05.278Z,5.60
2018-12-27T07:11:41.518Z,5.60
2018-12-27T07:14:10.451Z,5.80
2018-12-27T07:16:39.466Z,5.80
2018-12-27T07:19:08.447Z,5.70
2018-12-27T07:21:37.813Z,5.50
2018-12-27T07:24:06.564Z,5.30
2018-12-27T07:26:35.243Z,5.30
2018-12-27T07:29:03.999Z,5.10
2018-12-27T07:31:33.005Z,5.10
2018-12-27T07:34:01.973Z,5.00
2018-12-27T07:36:30.847Z,5.10
2018-12-27T07:38:59.498Z,5.10
2018-12-27T07:41:28.215Z,5.10
2018-12-27T07:43:56.913Z,5.20
2018-12-27T07:46:25.912Z,5.20
2018-12-27T07:48:54.581Z,5.20
2018-12-27T07:51:23.599Z,5.30
2018-12-27T07:53:52.606Z,5.20
2018-12-27T07:56:21.414Z,5.30
2018-12-27T07:58:50.471Z,5.40
2018-12-27T08:01:19.406Z,5.50
2018-12-27T08:03:48.124Z,5.70
2018-12-27T08:06:17.353Z,6.10
2018-12-27T08:08:46.303Z,6.40
2018-12-27T08:11:15.851Z,6.30
2018-12-27T08:13:44.845Z,6.00
2018-12-27T08:16:13.515Z,5.80
2018-12-27T08:18:42.183Z,5.60
2018-12-27T08:21:10.875Z,5.50
2018-12-27T08:23:39.904Z,5.50
2018-12-27T08:26:08.668Z,5.40
2018-12-27T08:28:37.602Z,5.40
2018-12-27T08:31:06.319Z,5.40
2018-12-27T08:33:35.035Z,5.40
2018-12-27T08:36:03.698Z,5.30
2018-12-27T08:38:32.385Z,5.30
2018-12-27T08:41:01.418Z,5.30
2018-12-27T08:43:30.723Z,5.20
2018-12-27T08:46:00.183Z,5.20
2018-12-27T08:48:28.894Z,5.20
2018-12-27T08:50:57.557Z,5.20
2018-12-27T08:53:27.923Z,5.30
2018-12-27T08:55:56.685Z,5.40
2018-12-27T08:58:25.379Z,5.30
2018-12-27T09:00:54.009Z,5.30
2018-12-27T09:03:23.096Z,5.40
2018-12-27T09:05:51.835Z,5.40
2018-12-27T09:08:20.516Z,5.30
2018-12-27T09:10:49.204Z,5.30
2018-12-27T09:13:18.164Z,5.30
2018-12-27T09:15:47.438Z,5.30
2018-12-27T09:18:16.433Z,5.20
2018-12-27T09:20:45.083Z,5.30
2018-12-27T09:23:13.781Z,5.30
2018-12-27T09:25:42.443Z,5.40
2018-12-27T09:28:11.157Z,5.40
2018-12-27T09:30:39.846Z,5.40
2018-12-27T09:33:08.523Z,5.30
2018-12-27T09:35:37.224Z,5.40
2018-12-27T09:38:05.868Z,5.30
2018-12-27T09:40:34.587Z,5.30
2018-12-27T09:43:03.607Z,5.30
2018-12-27T09:45:32.619Z,5.30
2018-12-27T09:48:01.359Z,5.30
2018-12-27T09:50:30.318Z,5.30
2018-12-27T09:52:59.589Z,5.30
2018-12-27T09:55:28.343Z,5.30
2018-12-27T09:57:57.015Z,5.30
2018-12-27T10:00:25.708Z,5.30
2018-12-27T10:02:54.351Z,5.40
2018-12-27T10:05:23.091Z,5.40
2018-12-27T10:07:57.451Z,5.30
2018-12-27T10:10:22.404Z,5.30
2018-12-27T10:12:51.078Z,5.30
2018-12-27T10:15:19.759Z,5.30
2018-12-27T10:17:48.797Z,5.30
2018-12-27T10:20:17.514Z,5.30
2018-12-27T10:22:49.195Z,5.40
2018-12-27T10:25:17.926Z,5.40
2018-12-27T10:27:46.862Z,5.40
2018-12-27T10:30:15.591Z,5.40
2018-12-27T10:32:44.257Z,5.40
2018-12-27T10:35:12.954Z,5.50
2018-12-27T10:37:41.632Z,5.50
2018-12-27T10:40:11.787Z,5.60
2018-12-27T10:42:40.447Z,5.50
2018-12-27T10:45:09.569Z,5.50
2018-12-27T10:47:38.501Z,5.50
2018-12-27T10:50:08.308Z,5.60
2018-12-27T10:52:37.039Z,5.60
2018-12-27T10:55:06.287Z,5.60
2018-12-27T10:57:35.048Z,5.60
2018-12-27T11:00:03.939Z,5.60
2018-12-27T11:02:32.876Z,5.60
2018-12-27T11:05:02.067Z,5.70
2018-12-27T11:07:30.792Z,5.70
2018-12-27T11:09:59.470Z,5.60
2018-12-27T11:12:28.405Z,5.70
2018-12-27T11:14:57.406Z,5.60
2018-12-27T11:17:26.180Z,5.70
2018-12-27T11:19:54.850Z,5.70
2018-12-27T11:22:24.291Z,5.80
2018-12-27T11:24:53.108Z,5.90
2018-12-27T11:27:21.881Z,6.10
2018-12-27T11:29:50.603Z,6.10
2018-12-27T11:32:19.358Z,6.00
2018-12-27T11:34:48.319Z,6.00
2018-12-27T11:37:17.087Z,5.90
2018-12-27T11:39:46.320Z,5.90
2018-12-27T11:42:15.089Z,5.80
2018-12-27T11:44:43.739Z,5.90
2018-12-27T11:47:12.444Z,5.90
2018-12-27T11:49:41.386Z,5.90
2018-12-27T11:52:10.128Z,5.90
2018-12-27T11:54:41.951Z,6.00
2018-12-27T11:57:13.843Z,6.00
2018-12-27T11:59:42.533Z,5.90
2018-12-27T12:02:11.501Z,6.00
2018-12-27T12:04:40.225Z,6.00
2018-12-27T12:07:14.475Z,6.00
2018-12-27T12:09:43.394Z,6.00
2018-12-27T12:12:12.102Z,6.00
2018-12-27T12:14:41.140Z,5.90
2018-12-27T12:17:09.896Z,5.90
2018-12-27T12:19:38.567Z,5.80
2018-12-27T12:22:07.252Z,5.80
2018-12-27T12:24:35.951Z,5.90
2018-12-27T12:27:04.649Z,5.90
2018-12-27T12:29:33.587Z,5.90
2018-12-27T12:32:02.319Z,5.90
2018-12-27T12:34:31.855Z,5.80
2018-12-27T12:37:01.156Z,5.80
2018-12-27T12:39:30.099Z,5.90
2018-12-27T12:41:59.351Z,5.80
2018-12-27T12:44:28.002Z,5.80
2018-12-27T12:46:56.953Z,5.90
2018-12-27T12:49:26.070Z,5.90
2018-12-27T12:51:55.060Z,5.90
2018-12-27T12:54:23.786Z,5.80
2018-12-27T12:56:52.795Z,5.90
2018-12-27T12:59:21.444Z,5.90
2018-12-27T13:01:50.129Z,5.90
2018-12-27T13:04:19.179Z,5.90
2018-12-27T13:06:48.831Z,5.90
2018-12-27T13:09:17.509Z,5.90
2018-12-27T13:11:46.768Z,5.90
2018-12-27T13:14:15.683Z,5.80
2018-12-27T13:16:44.965Z,5.80
2018-12-27T13:19:14.491Z,5.90
2018-12-27T13:21:43.899Z,5.90
2018-12-27T13:24:12.969Z,5.90
2018-12-27T13:26:42.580Z,5.90
2018-12-27T13:29:11.327Z,5.90
2018-12-27T13:31:41.079Z,5.90
2018-12-27T13:34:10.353Z,5.90
2018-12-27T13:36:39.467Z,5.90
2018-12-27T13:39:08.754Z,5.80
2018-12-27T13:41:37.433Z,5.80
2018-12-27T13:44:06.099Z,5.80
2018-12-27T13:46:35.449Z,5.80
2018-12-27T13:49:04.342Z,5.80
2018-12-27T13:51:33.434Z,5.80
2018-12-27T13:54:02.095Z,5.80
2018-12-27T13:56:30.966Z,5.80
2018-12-27T13:58:59.654Z,5.80
2018-12-27T14:01:28.442Z,5.80
2018-12-27T14:03:57.323Z,5.80
2018-12-27T14:06:32.646Z,5.80
2018-12-27T14:08:57.106Z,5.80
2018-12-27T14:11:26.104Z,5.80
2018-12-27T14:13:54.848Z,6.20
2018-12-27T14:16:23.882Z,6.00
2018-12-27T14:18:52.540Z,5.90
2018-12-27T14:21:21.419Z,5.90
2018-12-27T14:23:50.890Z,5.90
2018-12-27T14:26:19.956Z,5.90
2018-12-27T14:28:48.957Z,5.90
2018-12-27T14:31:17.618Z,5.80
2018-12-27T14:33:46.941Z,5.90
2018-12-27T14:36:15.938Z,5.80
2018-12-27T14:38:46.355Z,5.90
2018-12-27T14:41:15.469Z,5.80
2018-12-27T14:43:44.207Z,5.80
2018-12-27T14:46:13.150Z,5.80
2018-12-27T14:48:42.131Z,5.80
2018-12-27T14:51:11.670Z,5.80
2018-12-27T14:53:40.389Z,5.80
2018-12-27T14:56:09.139Z,5.80
2018-12-27T14:58:38.171Z,5.80
2018-12-27T15:01:07.143Z,5.80
2018-12-27T15:03:36.298Z,5.80
2018-12-27T15:06:05.558Z,5.70
2018-12-27T15:08:34.791Z,5.70
2018-12-27T15:11:03.451Z,5.70
2018-12-27T15:13:32.493Z,5.80
2018-12-27T15:16:01.582Z,5.80
2018-12-27T15:18:30.716Z,5.80
2018-12-27T15:20:59.486Z,5.80
2018-12-27T15:23:28.215Z,5.80
2018-12-27T15:25:56.901Z,5.80
2018-12-27T15:28:25.622Z,5.80
2018-12-27T15:30:54.261Z,5.80
2018-12-27T15:33:23.206Z,5.80
2018-12-27T15:35:52.023Z,5.80
2018-12-27T15:38:20.742Z,5.80
2018-12-27T15:40:49.582Z,5.80
2018-12-27T15:43:18.584Z,5.80
2018-12-27T15:45:47.655Z,5.80
2018-12-27T15:48:17.064Z,5.80
2018-12-27T15:50:45.851Z,5.80
2018-12-27T15:53:14.589Z,5.80
2018-12-27T15:55:43.609Z,5.80
2018-12-27T15:58:12.831Z,5.80
2018-12-27T16:00:41.719Z,5.80
2018-12-27T16:03:10.439Z,5.90
2018-12-27T16:05:39.111Z,5.80
2018-12-27T16:08:08.100Z,5.90
2018-12-27T16:10:36.765Z,5.90
2018-12-27T16:13:05.808Z,5.90
2018-12-27T16:15:34.579Z,5.90
2018-12-27T16:18:03.325Z,5.90
2018-12-27T16:20:32.348Z,5.80
2018-12-27T16:23:01.085Z,5.80
2018-12-27T16:25:30.232Z,5.80
2018-12-27T16:27:58.899Z,5.80
2018-12-27T16:30:27.727Z,5.80
2018-12-27T16:32:56.475Z,5.80
2018-12-27T16:35:26.340Z,5.80
2018-12-27T16:37:55.918Z,5.90
2018-12-27T16:40:24.998Z,5.80
2018-12-27T16:42:54.317Z,5.80
2018-12-27T16:45:23.414Z,5.80
2018-12-27T16:47:52.080Z,5.80
2018-12-27T16:50:21.189Z,5.80
2018-12-27T16:52:49.964Z,5.80
2018-12-27T16:55:19.390Z,5.90
2018-12-27T16:57:48.150Z,5.80
2018-12-27T17:00:16.826Z,5.80
2018-12-27T17:02:45.512Z,5.80
2018-12-27T17:05:14.533Z,5.90
2018-12-27T17:07:43.196Z,5.90
2018-12-27T17:10:12.223Z,5.90
2018-12-27T17:12:41.220Z,5.90
2018-12-27T17:15:10.211Z,5.90
2018-12-27T17:17:38.959Z,5.90
2018-12-27T17:20:08.191Z,5.90
2018-12-27T17:22:37.502Z,5.90
2018-12-27T17:25:06.329Z,5.90
2018-12-27T17:27:35.401Z,5.90
2018-12-27T17:30:04.683Z,5.90
2018-12-27T17:32:33.407Z,5.90
2018-12-27T17:35:02.126Z,5.90
2018-12-27T17:37:30.894Z,6.00
2018-12-27T17:39:59.614Z,6.00
2018-12-27T17:42:28.836Z,6.00
2018-12-27T17:44:58.034Z,6.00
2018-12-27T17:47:26.747Z,5.90
2018-12-27T17:49:55.479Z,5.90
2018-12-27T17:52:30.202Z,6.00
2018-12-27T17:54:55.830Z,6.00
2018-12-27T17:57:25.152Z,6.00
2018-12-27T17:59:54.184Z,6.10
2018-12-27T18:02:23.640Z,6.00
2018-12-27T18:04:52.311Z,6.00
2018-12-27T18:07:21.348Z,6.00
2018-12-27T18:09:50.556Z,6.00
2018-12-27T18:12:19.731Z,6.10
2018-12-27T18:15:01.591Z,6.10
2018-12-27T18:17:30.696Z,6.00
2018-12-27T18:20:00.025Z,6.00
2018-12-27T18:22:29.221Z,6.10
2018-12-27T18:24:58.587Z,6.00
2018-12-27T18:27:27.547Z,6.00
2018-12-27T18:29:57.219Z,6.00
2018-12-27T18:32:26.260Z,6.00
2018-12-27T18:34:54.969Z,6.00
2018-12-27T18:37:24.208Z,6.00
2018-12-27T18:39:53.335Z,6.00
2018-12-27T18:42:22.618Z,6.00
2018-12-27T18:44:51.530Z,6.00
2018-12-27T18:47:20.330Z,6.10
2018-12-27T18:49:50.515Z,6.00
2018-12-27T18:52:19.634Z,6.00
2018-12-27T18:54:49.235Z,6.00
2018-12-27T18:57:17.966Z,5.90
2018-12-27T18:59:47.468Z,6.00
2018-12-27T19:02:16.332Z,6.00
2018-12-27T19:04:45.498Z,6.00
2018-12-27T19:07:14.212Z,6.00
2018-12-27T19:09:43.590Z,6.00
2018-12-27T19:12:48.432Z,6.00
2018-12-27T19:15:20.669Z,6.00
2018-12-27T19:17:59.836Z,5.90
2018-12-27T19:20:29.363Z,5.90
2018-12-27T19:23:11.294Z,5.90
2018-12-27T19:25:40.411Z,5.90
2018-12-27T19:28:09.728Z,6.00
2018-12-27T19:30:38.466Z,5.90
2018-12-27T19:33:07.302Z,5.90
2018-12-27T19:35:36.140Z,6.00
2018-12-27T19:38:04.843Z,6.00
2018-12-27T19:40:34.877Z,5.90
2018-12-27T19:43:03.997Z,5.90
2018-12-27T19:45:33.302Z,5.90
2018-12-27T19:48:02.118Z,5.90
2018-12-27T19:50:31.496Z,5.90
2018-12-27T19:53:00.697Z,5.90
2018-12-27T19:55:29.624Z,5.90
2018-12-27T19:57:58.464Z,5.90
2018-12-27T20:00:27.695Z,5.80
2018-12-27T20:02:56.575Z,5.80
2018-12-27T20:05:25.974Z,5.80
2018-12-27T20:07:59.222Z,5.80
2018-12-27T20:10:26.100Z,5.80
2018-12-27T20:12:55.204Z,5.80
2018-12-27T20:15:24.311Z,5.80
2018-12-27T20:17:53.490Z,5.80
2018-12-27T20:20:22.251Z,5.90
2018-12-27T20:22:51.472Z,5.90
2018-12-27T20:25:20.543Z,5.80
2018-12-27T20:27:49.612Z,5.90
2018-12-27T20:30:18.388Z,5.90
2018-12-27T20:32:47.140Z,5.90
2018-12-27T20:35:15.798Z,5.90
2018-12-27T20:37:44.488Z,5.90
2018-12-27T20:40:13.190Z,5.80
2018-12-27T20:42:41.919Z,5.80
2018-12-27T20:45:10.765Z,5.80
2018-12-27T20:47:39.785Z,5.80
2018-12-27T20:50:08.542Z,5.90
2018-12-27T20:52:37.314Z,5.80
2018-12-27T20:55:06.089Z,5.90
2018-12-27T20:57:34.797Z,6.00
2018-12-27T21:00:03.550Z,5.90
2018-12-27T21:02:32.293Z,5.90
2018-12-27T21:05:01.223Z,5.90
2018-12-27T21:07:29.891Z,5.90
2018-12-27T21:09:58.540Z,5.90
2018-12-27T21:12:27.650Z,5.90
2018-12-27T21:14:56.313Z,5.90
2018-12-27T21:17:25.014Z,5.90
2018-12-27T21:19:53.940Z,5.90
2018-12-27T21:22:22.670Z,5.90
2018-12-27T21:24:51.375Z,5.90
2018-12-27T21:27:20.168Z,5.90
2018-12-27T21:29:49.099Z,5.90
2018-12-27T21:32:18.203Z,5.90
2018-12-27T21:34:46.854Z,5.90
2018-12-27T21:37:15.870Z,5.90
2018-12-27T21:39:45.182Z,5.90
2018-12-27T21:42:14.330Z,5.90
2018-12-27T21:44:43.372Z,5.90
2018-12-27T21:47:12.355Z,5.90
2018-12-27T21:49:41.342Z,5.90
2018-12-27T21:52:10.006Z,5.90
2018-12-27T21:57:33.818Z,5.90
2018-12-27T22:00:02.484Z,5.90
2018-12-27T22:02:31.425Z,5.90
2018-12-27T22:05:00.555Z,5.90
2018-12-27T22:07:29.243Z,5.90
2018-12-27T22:09:58.354Z,5.90
2018-12-27T22:12:27.363Z,5.90
2018-12-27T22:14:56.075Z,5.90
2018-12-27T22:17:25.372Z,5.90
2018-12-27T22:19:54.873Z,5.90
2018-12-27T22:22:23.767Z,5.90
2018-12-27T22:24:52.522Z,5.90
2018-12-27T22:27:21.750Z,5.90
2018-12-27T22:29:50.952Z,5.90
2018-12-27T22:32:19.611Z,6.00
2018-12-27T22:34:48.299Z,5.90
2018-12-27T22:37:17.000Z,5.90
2018-12-27T22:39:45.948Z,5.90
2018-12-27T22:42:14.955Z,5.90
2018-12-27T22:44:43.654Z,5.90
2018-12-27T22:47:12.989Z,5.90
2018-12-27T22:49:41.639Z,5.90
2018-12-27T22:52:10.889Z,5.90
2018-12-27T22:54:39.668Z,5.90
2018-12-27T22:57:08.432Z,5.90
2018-12-27T22:59:37.370Z,5.80
2018-12-27T23:02:06.103Z,5.90
2018-12-27T23:04:35.142Z,5.80
2018-12-27T23:07:03.982Z,5.80
2018-12-27T23:09:32.670Z,5.80
2018-12-27T23:12:01.903Z,5.80
2018-12-27T23:14:30.830Z,5.80
2018-12-27T23:17:00.199Z,5.80
2018-12-27T23:19:28.876Z,5.80
2018-12-27T23:21:57.846Z,5.70
2018-12-27T23:24:26.518Z,5.70
2018-12-27T23:26:55.511Z,5.70
2018-12-27T23:29:24.214Z,5.70
2018-12-27T23:31:52.909Z,5.70
2018-12-27T23:34:21.613Z,5.70
2018-12-27T23:36:50.331Z,5.70
2018-12-27T23:39:19.051Z,5.70
2018-12-27T23:41:47.966Z,5.70
2018-12-27T23:44:17.294Z,5.60
2018-12-27T23:47:05.535Z,5.70
2018-12-27T23:49:34.267Z,5.70
2018-12-27T23:52:04.053Z,5.60
2018-12-27T23:54:33.031Z,5.70
2018-12-27T23:57:01.777Z,5.70
2018-12-27T23:59:30.468Z,5.70
